CYAY

Saint Anthony Airport

St. Anthony, Canada
TAF AMD CYAY 220014Z 2200/2208 02015G25KT 3SM -FZRA BR OVC006 TEMPO 2200/2205 6SM -SN SCT006 OVC015 BECMG 2202/2204 04010KT FM220500 22006KT 6SM -SN BKN008 OVC015 TEMPO 2205/2208 4SM -FZDZ BR SCT008 OVC015 RMK FCST BASED ON AUTO OBS. NXT FCST BY 220200Z
Issued Valid From Valid To
Jan-22 @ 00:14 UTC
(30 minutes ago)
Jan-22 @ 00:00 UTC
(44 minutes ago)
Jan-22 @ 08:00 UTC
(in 7 hours)
Jan-22 @ 00:00 to Jan-22 @ 02:00
TAF AMD CYAY 220014Z 2200/2208 02015G25KT 3SM -FZRA BR OVC006
Wind Visibility Clouds Conditions
20° at 15 knots
 Gusting to 25 knots
3 miles
  • Overcast at 600' AGL
  • Light Freezing
  • Light Rain
  • Mist
Temporary Jan-22 @ 00:00 to Jan-22 @ 05:00
TEMPO 2200/2205 6SM -SN SCT006 OVC015
Visibility Clouds Conditions
6 miles
  • Scattered at 600' AGL
  • Overcast at 1,500' AGL
  • Light Snow
Becoming Jan-22 @ 02:00 to Jan-22 @ 05:00
BECMG 2202/2204 04010KT
Wind Visibility Clouds Conditions
40° at 10 knots 3 miles
  • Overcast at 600' AGL
  • Light Freezing
  • Light Rain
  • Mist
From Jan-22 @ 05:00 to Jan-22 @ 08:00
FM220500 22006KT 6SM -SN BKN008 OVC015
Wind Visibility Clouds Conditions
220° at 6 knots 6 miles
  • Broken at 800' AGL
  • Overcast at 1,500' AGL
  • Light Snow
Temporary Jan-22 @ 05:00 to Jan-22 @ 08:00
TEMPO 2205/2208 4SM -FZDZ BR SCT008 OVC015 RMK FCST BASED ON AUTO OBS. NXT FCST BY 220200Z
Visibility Clouds Conditions
4 miles
  • Scattered at 800' AGL
  • Overcast at 1,500' AGL
  • Light Freezing
  • Light Drizzle
  • Mist
TAF AMD CYAY 220014Z 2200/2208 02015G25KT 3SM -FZRA BR OVC006 TEMPO 2200/2205 6SM -SN SCT006 OVC015 BECMG 2202/2204 04010KT FM220500 22006KT 6SM -SN BKN008 OVC015 TEMPO 2205/2208 4SM -FZDZ BR SCT008 OVC015 RMK FCST BASED ON AUTO OBS. NXT FCST BY 220200Z
Issued Jan-22 @ 00:14 UTC
(30 minutes ago)
Valid From Jan-22 @ 00:00 UTC
(44 minutes ago)
Valid To Jan-22 @ 08:00 UTC
(in 7 hours)
Jan-22 @ 00:00 - Jan-22 @ 02:00
Wind Visibility
20° at 15 knots
 Gusting to 25 knots
3 miles
Clouds
  • Overcast at 600' AGL
Conditions
  • Light Freezing
  • Light Rain
  • Mist
Temporary Jan-22 @ 00:00 - Jan-22 @ 05:00
Clouds
  • Scattered at 600' AGL
  • Overcast at 1,500' AGL
Conditions
  • Light Snow
Becoming Jan-22 @ 02:00 - Jan-22 @ 05:00
Wind Visibility
40° at 10 knots 3 miles
Clouds
  • Overcast at 600' AGL
Conditions
  • Light Freezing
  • Light Rain
  • Mist
From Jan-22 @ 05:00 - Jan-22 @ 08:00
Wind Visibility
220° at 6 knots 6 miles
Clouds
  • Broken at 800' AGL
  • Overcast at 1,500' AGL
Conditions
  • Light Snow
Temporary Jan-22 @ 05:00 - Jan-22 @ 08:00
Clouds
  • Scattered at 800' AGL
  • Overcast at 1,500' AGL
Conditions
  • Light Freezing
  • Light Drizzle
  • Mist